sensor_id;sensor_type;location;lat;lon;timestamp;P1;durP1;ratioP1;P2;durP2;ratioP2
6999;SDS011;3540;53.242;10.408;2022-12-07T00:00:54;20.63;;;14.73;;
6999;SDS011;3540;53.242;10.408;2022-12-07T00:03:20;21.17;;;14.73;;
6999;SDS011;3540;53.242;10.408;2022-12-07T00:05:46;20.17;;;14.00;;
6999;SDS011;3540;53.242;10.408;2022-12-07T00:08:11;22.80;;;15.47;;
6999;SDS011;3540;53.242;10.408;2022-12-07T00:10:37;20.60;;;13.97;;
6999;SDS011;3540;53.242;10.408;2022-12-07T00:13:03;23.63;;;15.70;;
6999;SDS011;3540;53.242;10.408;2022-12-07T00:15:28;21.33;;;14.63;;
6999;SDS011;3540;53.242;10.408;2022-12-07T00:17:54;20.10;;;14.30;;
6999;SDS011;3540;53.242;10.408;2022-12-07T00:20:20;21.43;;;15.03;;
6999;SDS011;3540;53.242;10.408;2022-12-07T00:22:45;21.00;;;14.03;;
6999;SDS011;3540;53.242;10.408;2022-12-07T00:25:11;21.43;;;15.00;;
6999;SDS011;3540;53.242;10.408;2022-12-07T00:27:36;21.40;;;14.70;;
6999;SDS011;3540;53.242;10.408;2022-12-07T00:30:02;21.10;;;14.17;;
6999;SDS011;3540;53.242;10.408;2022-12-07T00:32:28;19.80;;;14.23;;
6999;SDS011;3540;53.242;10.408;2022-12-07T00:34:54;23.00;;;14.90;;
6999;SDS011;3540;53.242;10.408;2022-12-07T00:37:19;20.27;;;14.43;;
6999;SDS011;3540;53.242;10.408;2022-12-07T00:39:45;23.80;;;14.10;;
6999;SDS011;3540;53.242;10.408;2022-12-07T00:42:11;19.13;;;13.87;;
6999;SDS011;3540;53.242;10.408;2022-12-07T00:44:36;21.17;;;14.00;;
6999;SDS011;3540;53.242;10.408;2022-12-07T00:47:02;22.27;;;14.70;;
6999;SDS011;3540;53.242;10.408;2022-12-07T00:49:28;22.70;;;14.57;;
6999;SDS011;3540;53.242;10.408;2022-12-07T00:51:53;21.57;;;14.20;;
6999;SDS011;3540;53.242;10.408;2022-12-07T00:54:19;18.87;;;13.70;;
6999;SDS011;3540;53.242;10.408;2022-12-07T00:56:45;24.87;;;14.27;;
6999;SDS011;3540;53.242;10.408;2022-12-07T00:59:12;23.20;;;14.50;;
6999;SDS011;3540;53.242;10.408;2022-12-07T01:01:41;20.50;;;13.27;;
6999;SDS011;3540;53.242;10.408;2022-12-07T01:04:06;23.43;;;14.23;;
6999;SDS011;3540;53.242;10.408;2022-12-07T01:06:32;22.33;;;13.87;;
6999;SDS011;3540;53.242;10.408;2022-12-07T01:08:58;22.50;;;14.37;;
6999;SDS011;3540;53.242;10.408;2022-12-07T01:11:25;23.03;;;13.67;;
6999;SDS011;3540;53.242;10.408;2022-12-07T01:13:53;23.00;;;14.23;;
6999;SDS011;3540;53.242;10.408;2022-12-07T01:16:21;25.73;;;13.90;;
6999;SDS011;3540;53.242;10.408;2022-12-07T01:18:49;20.30;;;13.17;;
6999;SDS011;3540;53.242;10.408;2022-12-07T01:21:17;19.10;;;12.93;;
6999;SDS011;3540;53.242;10.408;2022-12-07T01:23:46;23.37;;;13.90;;
6999;SDS011;3540;53.242;10.408;2022-12-07T01:26:13;20.87;;;13.10;;
6999;SDS011;3540;53.242;10.408;2022-12-07T01:28:40;19.73;;;13.17;;
6999;SDS011;3540;53.242;10.408;2022-12-07T01:31:07;21.90;;;13.97;;
6999;SDS011;3540;53.242;10.408;2022-12-07T01:33:36;25.10;;;13.83;;
6999;SDS011;3540;53.242;10.408;2022-12-07T01:36:04;25.30;;;14.23;;
6999;SDS011;3540;53.242;10.408;2022-12-07T01:38:32;20.90;;;14.13;;
6999;SDS011;3540;53.242;10.408;2022-12-07T01:40:58;22.13;;;13.87;;
6999;SDS011;3540;53.242;10.408;2022-12-07T01:43:26;23.93;;;13.87;;
6999;SDS011;3540;53.242;10.408;2022-12-07T01:45:54;24.87;;;14.03;;
6999;SDS011;3540;53.242;10.408;2022-12-07T01:48:39;20.00;;;14.10;;
6999;SDS011;3540;53.242;10.408;2022-12-07T01:51:08;24.07;;;14.30;;
6999;SDS011;3540;53.242;10.408;2022-12-07T01:53:38;27.07;;;14.33;;
6999;SDS011;3540;53.242;10.408;2022-12-07T01:56:08;22.37;;;14.13;;
6999;SDS011;3540;53.242;10.408;2022-12-07T01:58:39;23.07;;;14.50;;
6999;SDS011;3540;53.242;10.408;2022-12-07T02:01:05;23.13;;;13.87;;
6999;SDS011;3540;53.242;10.408;2022-12-07T02:03:32;23.53;;;15.13;;
6999;SDS011;3540;53.242;10.408;2022-12-07T02:06:02;23.00;;;13.70;;
6999;SDS011;3540;53.242;10.408;2022-12-07T02:08:29;21.70;;;13.53;;
6999;SDS011;3540;53.242;10.408;2022-12-07T02:10:55;20.97;;;13.60;;
6999;SDS011;3540;53.242;10.408;2022-12-07T02:13:24;20.33;;;13.57;;
6999;SDS011;3540;53.242;10.408;2022-12-07T02:21:03;23.13;;;13.83;;
6999;SDS011;3540;53.242;10.408;2022-12-07T02:29:30;22.83;;;12.73;;
6999;SDS011;3540;53.242;10.408;2022-12-07T02:37:21;23.73;;;12.53;;
6999;SDS011;3540;53.242;10.408;2022-12-07T02:40:01;20.37;;;12.43;;
6999;SDS011;3540;53.242;10.408;2022-12-07T02:42:37;17.13;;;12.07;;
6999;SDS011;3540;53.242;10.408;2022-12-07T02:45:07;18.40;;;11.70;;
6999;SDS011;3540;53.242;10.408;2022-12-07T02:47:35;18.30;;;11.70;;
6999;SDS011;3540;53.242;10.408;2022-12-07T02:50:03;21.77;;;11.50;;
6999;SDS011;3540;53.242;10.408;2022-12-07T02:52:31;16.73;;;11.07;;
6999;SDS011;3540;53.242;10.408;2022-12-07T02:54:56;14.93;;;10.50;;
6999;SDS011;3540;53.242;10.408;2022-12-07T03:00:26;20.97;;;11.07;;
6999;SDS011;3540;53.242;10.408;2022-12-07T03:10:45;17.50;;;9.27;;
6999;SDS011;3540;53.242;10.408;2022-12-07T03:18:59;12.50;;;8.47;;
6999;SDS011;3540;53.242;10.408;2022-12-07T03:21:41;15.90;;;7.87;;
6999;SDS011;3540;53.242;10.408;2022-12-07T03:24:12;16.90;;;8.73;;
6999;SDS011;3540;53.242;10.408;2022-12-07T03:26:43;17.23;;;8.57;;
6999;SDS011;3540;53.242;10.408;2022-12-07T03:29:16;13.93;;;7.93;;
6999;SDS011;3540;53.242;10.408;2022-12-07T03:31:54;15.60;;;7.77;;
6999;SDS011;3540;53.242;10.408;2022-12-07T03:34:33;12.33;;;7.90;;
6999;SDS011;3540;53.242;10.408;2022-12-07T03:37:08;13.03;;;7.37;;
6999;SDS011;3540;53.242;10.408;2022-12-07T03:39:41;11.47;;;6.93;;
6999;SDS011;3540;53.242;10.408;2022-12-07T03:42:14;17.53;;;7.80;;
6999;SDS011;3540;53.242;10.408;2022-12-07T03:44:40;11.97;;;7.00;;
6999;SDS011;3540;53.242;10.408;2022-12-07T03:47:22;10.57;;;6.67;;
6999;SDS011;3540;53.242;10.408;2022-12-07T03:52:26;9.70;;;6.67;;
6999;SDS011;3540;53.242;10.408;2022-12-07T03:55:20;9.70;;;6.40;;
6999;SDS011;3540;53.242;10.408;2022-12-07T03:57:58;10.57;;;6.07;;
6999;SDS011;3540;53.242;10.408;2022-12-07T04:00:27;13.77;;;6.53;;
6999;SDS011;3540;53.242;10.408;2022-12-07T04:02:53;11.20;;;5.70;;
6999;SDS011;3540;53.242;10.408;2022-12-07T04:05:19;15.70;;;6.60;;
6999;SDS011;3540;53.242;10.408;2022-12-07T04:07:45;11.33;;;5.67;;
6999;SDS011;3540;53.242;10.408;2022-12-07T04:10:11;11.33;;;5.83;;
6999;SDS011;3540;53.242;10.408;2022-12-07T04:12:37;15.87;;;5.80;;
6999;SDS011;3540;53.242;10.408;2022-12-07T04:15:03;11.93;;;5.80;;
6999;SDS011;3540;53.242;10.408;2022-12-07T04:17:29;14.60;;;6.17;;
6999;SDS011;3540;53.242;10.408;2022-12-07T04:19:55;13.40;;;5.90;;
6999;SDS011;3540;53.242;10.408;2022-12-07T04:22:21;10.60;;;5.70;;
6999;SDS011;3540;53.242;10.408;2022-12-07T04:24:46;15.00;;;5.97;;
6999;SDS011;3540;53.242;10.408;2022-12-07T04:27:12;11.27;;;5.77;;
6999;SDS011;3540;53.242;10.408;2022-12-07T04:29:38;12.53;;;5.53;;
6999;SDS011;3540;53.242;10.408;2022-12-07T04:32:03;15.60;;;6.33;;
6999;SDS011;3540;53.242;10.408;2022-12-07T04:34:29;10.73;;;5.97;;
6999;SDS011;3540;53.242;10.408;2022-12-07T04:36:55;10.70;;;5.50;;
6999;SDS011;3540;53.242;10.408;2022-12-07T04:39:25;10.53;;;5.90;;
6999;SDS011;3540;53.242;10.408;2022-12-07T04:41:52;11.77;;;5.93;;
6999;SDS011;3540;53.242;10.408;2022-12-07T04:44:18;13.10;;;6.33;;
6999;SDS011;3540;53.242;10.408;2022-12-07T04:46:45;13.20;;;5.80;;
6999;SDS011;3540;53.242;10.408;2022-12-07T04:49:11;9.33;;;5.90;;
6999;SDS011;3540;53.242;10.408;2022-12-07T04:51:38;9.40;;;5.20;;
6999;SDS011;3540;53.242;10.408;2022-12-07T04:54:04;12.63;;;5.50;;
6999;SDS011;3540;53.242;10.408;2022-12-07T04:56:30;12.37;;;5.50;;
6999;SDS011;3540;53.242;10.408;2022-12-07T04:58:56;10.93;;;5.20;;
6999;SDS011;3540;53.242;10.408;2022-12-07T05:01:22;9.50;;;4.53;;
6999;SDS011;3540;53.242;10.408;2022-12-07T05:03:48;8.50;;;4.67;;
6999;SDS011;3540;53.242;10.408;2022-12-07T05:06:14;12.73;;;5.23;;
6999;SDS011;3540;53.242;10.408;2022-12-07T05:08:40;8.20;;;4.70;;
6999;SDS011;3540;53.242;10.408;2022-12-07T05:11:07;8.33;;;4.77;;
6999;SDS011;3540;53.242;10.408;2022-12-07T05:13:33;7.23;;;4.27;;
6999;SDS011;3540;53.242;10.408;2022-12-07T05:15:59;8.00;;;4.50;;
6999;SDS011;3540;53.242;10.408;2022-12-07T05:18:25;6.87;;;3.90;;
6999;SDS011;3540;53.242;10.408;2022-12-07T05:20:51;7.67;;;4.23;;
6999;SDS011;3540;53.242;10.408;2022-12-07T05:23:17;7.17;;;4.20;;
6999;SDS011;3540;53.242;10.408;2022-12-07T05:25:43;8.13;;;4.30;;
6999;SDS011;3540;53.242;10.408;2022-12-07T05:28:09;9.00;;;4.03;;
6999;SDS011;3540;53.242;10.408;2022-12-07T05:30:35;9.80;;;3.90;;
6999;SDS011;3540;53.242;10.408;2022-12-07T05:33:01;7.87;;;3.53;;
6999;SDS011;3540;53.242;10.408;2022-12-07T05:35:27;8.37;;;3.60;;
6999;SDS011;3540;53.242;10.408;2022-12-07T05:37:53;9.30;;;3.73;;
6999;SDS011;3540;53.242;10.408;2022-12-07T05:40:19;10.40;;;3.60;;
6999;SDS011;3540;53.242;10.408;2022-12-07T05:42:45;5.57;;;3.60;;
6999;SDS011;3540;53.242;10.408;2022-12-07T05:45:11;8.57;;;3.60;;
6999;SDS011;3540;53.242;10.408;2022-12-07T05:47:36;6.50;;;3.50;;
6999;SDS011;3540;53.242;10.408;2022-12-07T05:50:03;6.27;;;3.53;;
6999;SDS011;3540;53.242;10.408;2022-12-07T05:52:30;6.23;;;3.67;;
6999;SDS011;3540;53.242;10.408;2022-12-07T05:54:55;8.73;;;4.00;;
6999;SDS011;3540;53.242;10.408;2022-12-07T05:57:21;6.63;;;3.67;;
6999;SDS011;3540;53.242;10.408;2022-12-07T05:59:47;7.70;;;3.80;;
6999;SDS011;3540;53.242;10.408;2022-12-07T06:02:13;12.57;;;4.33;;
6999;SDS011;3540;53.242;10.408;2022-12-07T06:04:41;9.60;;;4.13;;
6999;SDS011;3540;53.242;10.408;2022-12-07T06:07:08;9.77;;;3.87;;
6999;SDS011;3540;53.242;10.408;2022-12-07T06:09:34;5.63;;;3.50;;
6999;SDS011;3540;53.242;10.408;2022-12-07T06:12:01;10.90;;;4.57;;
6999;SDS011;3540;53.242;10.408;2022-12-07T06:14:57;8.70;;;4.20;;
6999;SDS011;3540;53.242;10.408;2022-12-07T06:17:23;9.03;;;4.20;;
6999;SDS011;3540;53.242;10.408;2022-12-07T06:19:49;7.30;;;4.50;;
6999;SDS011;3540;53.242;10.408;2022-12-07T06:22:15;9.00;;;4.27;;
6999;SDS011;3540;53.242;10.408;2022-12-07T06:24:41;11.33;;;4.50;;
6999;SDS011;3540;53.242;10.408;2022-12-07T06:27:06;7.63;;;4.03;;
6999;SDS011;3540;53.242;10.408;2022-12-07T06:29:32;9.27;;;3.93;;
6999;SDS011;3540;53.242;10.408;2022-12-07T06:31:58;8.20;;;3.83;;
6999;SDS011;3540;53.242;10.408;2022-12-07T06:34:24;12.47;;;4.17;;
6999;SDS011;3540;53.242;10.408;2022-12-07T06:36:51;9.03;;;4.50;;
6999;SDS011;3540;53.242;10.408;2022-12-07T06:39:19;10.20;;;4.60;;
6999;SDS011;3540;53.242;10.408;2022-12-07T06:41:45;9.43;;;4.57;;
6999;SDS011;3540;53.242;10.408;2022-12-07T06:44:10;7.93;;;4.30;;
6999;SDS011;3540;53.242;10.408;2022-12-07T06:46:36;9.03;;;4.90;;
6999;SDS011;3540;53.242;10.408;2022-12-07T06:49:02;10.97;;;5.33;;
6999;SDS011;3540;53.242;10.408;2022-12-07T06:51:29;9.10;;;4.80;;
6999;SDS011;3540;53.242;10.408;2022-12-07T06:53:55;8.07;;;4.33;;
6999;SDS011;3540;53.242;10.408;2022-12-07T06:56:20;11.17;;;5.00;;
6999;SDS011;3540;53.242;10.408;2022-12-07T06:58:47;12.57;;;5.00;;
6999;SDS011;3540;53.242;10.408;2022-12-07T07:01:14;10.47;;;4.37;;
6999;SDS011;3540;53.242;10.408;2022-12-07T07:03:41;11.23;;;5.47;;
6999;SDS011;3540;53.242;10.408;2022-12-07T07:06:08;10.00;;;5.43;;
6999;SDS011;3540;53.242;10.408;2022-12-07T07:08:35;8.17;;;4.70;;
6999;SDS011;3540;53.242;10.408;2022-12-07T07:11:01;8.23;;;4.53;;
6999;SDS011;3540;53.242;10.408;2022-12-07T07:13:27;14.10;;;5.50;;
6999;SDS011;3540;53.242;10.408;2022-12-07T07:15:53;13.23;;;5.37;;
6999;SDS011;3540;53.242;10.408;2022-12-07T07:18:19;10.40;;;4.47;;
6999;SDS011;3540;53.242;10.408;2022-12-07T07:20:44;10.40;;;5.00;;
6999;SDS011;3540;53.242;10.408;2022-12-07T07:23:10;8.43;;;4.07;;
6999;SDS011;3540;53.242;10.408;2022-12-07T07:25:36;13.97;;;4.87;;
6999;SDS011;3540;53.242;10.408;2022-12-07T07:28:02;13.33;;;4.50;;
6999;SDS011;3540;53.242;10.408;2022-12-07T07:30:28;10.00;;;4.90;;
6999;SDS011;3540;53.242;10.408;2022-12-07T07:33:00;7.93;;;3.73;;
6999;SDS011;3540;53.242;10.408;2022-12-07T07:35:27;7.30;;;3.50;;
6999;SDS011;3540;53.242;10.408;2022-12-07T07:37:53;13.53;;;4.90;;
6999;SDS011;3540;53.242;10.408;2022-12-07T07:40:19;8.83;;;4.37;;
6999;SDS011;3540;53.242;10.408;2022-12-07T07:42:49;9.97;;;4.17;;
6999;SDS011;3540;53.242;10.408;2022-12-07T07:45:19;9.43;;;4.10;;
6999;SDS011;3540;53.242;10.408;2022-12-07T07:47:46;8.80;;;4.60;;
6999;SDS011;3540;53.242;10.408;2022-12-07T07:50:12;8.27;;;4.70;;
6999;SDS011;3540;53.242;10.408;2022-12-07T07:52:37;12.33;;;4.53;;
6999;SDS011;3540;53.242;10.408;2022-12-07T07:55:03;7.43;;;4.13;;
6999;SDS011;3540;53.242;10.408;2022-12-07T07:57:29;10.70;;;4.23;;
6999;SDS011;3540;53.242;10.408;2022-12-07T07:59:55;10.73;;;3.63;;
6999;SDS011;3540;53.242;10.408;2022-12-07T08:02:21;9.87;;;4.67;;
6999;SDS011;3540;53.242;10.408;2022-12-07T08:04:48;7.57;;;4.20;;
6999;SDS011;3540;53.242;10.408;2022-12-07T08:07:13;7.63;;;3.77;;
6999;SDS011;3540;53.242;10.408;2022-12-07T08:09:40;9.77;;;4.30;;
6999;SDS011;3540;53.242;10.408;2022-12-07T08:12:06;8.67;;;3.90;;
6999;SDS011;3540;53.242;10.408;2022-12-07T08:14:31;8.17;;;4.10;;
6999;SDS011;3540;53.242;10.408;2022-12-07T08:16:57;8.73;;;3.50;;
6999;SDS011;3540;53.242;10.408;2022-12-07T08:19:23;6.53;;;3.83;;
6999;SDS011;3540;53.242;10.408;2022-12-07T08:21:49;7.17;;;3.87;;
6999;SDS011;3540;53.242;10.408;2022-12-07T08:24:15;7.13;;;3.47;;
6999;SDS011;3540;53.242;10.408;2022-12-07T08:26:41;5.70;;;3.60;;
6999;SDS011;3540;53.242;10.408;2022-12-07T08:29:07;8.63;;;3.40;;
6999;SDS011;3540;53.242;10.408;2022-12-07T08:31:32;5.80;;;3.23;;
6999;SDS011;3540;53.242;10.408;2022-12-07T08:33:58;8.37;;;3.30;;
6999;SDS011;3540;53.242;10.408;2022-12-07T08:36:24;8.73;;;3.80;;
6999;SDS011;3540;53.242;10.408;2022-12-07T08:38:50;5.60;;;3.40;;
6999;SDS011;3540;53.242;10.408;2022-12-07T08:41:16;6.90;;;3.37;;
6999;SDS011;3540;53.242;10.408;2022-12-07T08:43:42;7.93;;;3.33;;
6999;SDS011;3540;53.242;10.408;2022-12-07T08:49:10;5.33;;;3.13;;
6999;SDS011;3540;53.242;10.408;2022-12-07T08:51:43;5.43;;;3.20;;
6999;SDS011;3540;53.242;10.408;2022-12-07T08:54:10;5.33;;;3.40;;
6999;SDS011;3540;53.242;10.408;2022-12-07T08:56:39;5.90;;;3.10;;
6999;SDS011;3540;53.242;10.408;2022-12-07T08:59:05;5.03;;;3.00;;
6999;SDS011;3540;53.242;10.408;2022-12-07T09:01:32;7.37;;;3.40;;
6999;SDS011;3540;53.242;10.408;2022-12-07T09:03:58;10.57;;;3.20;;
6999;SDS011;3540;53.242;10.408;2022-12-07T09:06:24;7.90;;;3.47;;
6999;SDS011;3540;53.242;10.408;2022-12-07T09:08:51;6.40;;;2.90;;
6999;SDS011;3540;53.242;10.408;2022-12-07T09:11:21;6.73;;;2.70;;
6999;SDS011;3540;53.242;10.408;2022-12-07T09:13:46;4.60;;;2.50;;
6999;SDS011;3540;53.242;10.408;2022-12-07T09:16:12;6.83;;;2.70;;
6999;SDS011;3540;53.242;10.408;2022-12-07T09:18:38;4.90;;;2.60;;
6999;SDS011;3540;53.242;10.408;2022-12-07T09:21:04;6.90;;;2.60;;
6999;SDS011;3540;53.242;10.408;2022-12-07T09:23:30;9.17;;;2.90;;
6999;SDS011;3540;53.242;10.408;2022-12-07T09:25:59;8.17;;;2.80;;
6999;SDS011;3540;53.242;10.408;2022-12-07T09:28:25;5.30;;;2.30;;
6999;SDS011;3540;53.242;10.408;2022-12-07T09:30:51;9.97;;;2.53;;
6999;SDS011;3540;53.242;10.408;2022-12-07T09:33:17;6.23;;;2.20;;
6999;SDS011;3540;53.242;10.408;2022-12-07T09:35:46;6.70;;;2.30;;
6999;SDS011;3540;53.242;10.408;2022-12-07T09:38:12;5.90;;;2.33;;
6999;SDS011;3540;53.242;10.408;2022-12-07T09:40:39;9.10;;;2.80;;
6999;SDS011;3540;53.242;10.408;2022-12-07T09:43:11;4.50;;;2.30;;
6999;SDS011;3540;53.242;10.408;2022-12-07T09:45:55;8.90;;;2.67;;
6999;SDS011;3540;53.242;10.408;2022-12-07T09:48:35;5.20;;;2.50;;
6999;SDS011;3540;53.242;10.408;2022-12-07T09:51:10;5.73;;;2.60;;
6999;SDS011;3540;53.242;10.408;2022-12-07T09:53:46;5.53;;;2.10;;
6999;SDS011;3540;53.242;10.408;2022-12-07T09:56:13;3.23;;;2.00;;
6999;SDS011;3540;53.242;10.408;2022-12-07T09:58:40;7.00;;;2.77;;
6999;SDS011;3540;53.242;10.408;2022-12-07T10:03:32;3.27;;;2.20;;
6999;SDS011;3540;53.242;10.408;2022-12-07T10:05:59;5.43;;;2.27;;
6999;SDS011;3540;53.242;10.408;2022-12-07T10:08:25;4.37;;;2.10;;
6999;SDS011;3540;53.242;10.408;2022-12-07T10:10:52;6.63;;;2.33;;
6999;SDS011;3540;53.242;10.408;2022-12-07T10:13:36;4.73;;;2.50;;
6999;SDS011;3540;53.242;10.408;2022-12-07T10:16:04;7.63;;;2.20;;
6999;SDS011;3540;53.242;10.408;2022-12-07T10:23:27;6.93;;;2.13;;
6999;SDS011;3540;53.242;10.408;2022-12-07T10:25:52;7.13;;;2.33;;
6999;SDS011;3540;53.242;10.408;2022-12-07T10:28:20;5.87;;;1.97;;
6999;SDS011;3540;53.242;10.408;2022-12-07T10:36:15;6.63;;;2.00;;
6999;SDS011;3540;53.242;10.408;2022-12-07T10:39:10;9.57;;;2.50;;
6999;SDS011;3540;53.242;10.408;2022-12-07T10:41:59;2.70;;;1.70;;
6999;SDS011;3540;53.242;10.408;2022-12-07T10:44:29;4.50;;;1.70;;
6999;SDS011;3540;53.242;10.408;2022-12-07T11:01:18;3.23;;;1.47;;
6999;SDS011;3540;53.242;10.408;2022-12-07T11:07:29;4.07;;;1.20;;
6999;SDS011;3540;53.242;10.408;2022-12-07T11:15:18;4.57;;;1.50;;
6999;SDS011;3540;53.242;10.408;2022-12-07T11:18:13;3.53;;;1.10;;
6999;SDS011;3540;53.242;10.408;2022-12-07T11:21:06;4.17;;;1.33;;
6999;SDS011;3540;53.242;10.408;2022-12-07T11:26:34;5.67;;;1.97;;
6999;SDS011;3540;53.242;10.408;2022-12-07T11:29:33;3.40;;;1.30;;
6999;SDS011;3540;53.242;10.408;2022-12-07T11:32:24;3.13;;;1.30;;
6999;SDS011;3540;53.242;10.408;2022-12-07T11:35:15;3.87;;;1.40;;
6999;SDS011;3540;53.242;10.408;2022-12-07T11:37:57;5.13;;;1.40;;
6999;SDS011;3540;53.242;10.408;2022-12-07T11:40:30;4.50;;;1.20;;
6999;SDS011;3540;53.242;10.408;2022-12-07T11:48:38;5.90;;;1.70;;
6999;SDS011;3540;53.242;10.408;2022-12-07T11:51:12;3.20;;;1.40;;
6999;SDS011;3540;53.242;10.408;2022-12-07T11:53:45;6.40;;;1.87;;
6999;SDS011;3540;53.242;10.408;2022-12-07T11:56:19;5.97;;;1.80;;
6999;SDS011;3540;53.242;10.408;2022-12-07T11:59:03;7.43;;;1.70;;
6999;SDS011;3540;53.242;10.408;2022-12-07T12:06:34;6.73;;;1.80;;
6999;SDS011;3540;53.242;10.408;2022-12-07T12:09:11;4.83;;;1.90;;
6999;SDS011;3540;53.242;10.408;2022-12-07T12:23:20;8.37;;;1.77;;
6999;SDS011;3540;53.242;10.408;2022-12-07T12:25:53;7.40;;;1.90;;
6999;SDS011;3540;53.242;10.408;2022-12-07T12:28:39;6.13;;;2.07;;
6999;SDS011;3540;53.242;10.408;2022-12-07T12:33:45;9.20;;;2.00;;
6999;SDS011;3540;53.242;10.408;2022-12-07T12:54:20;9.53;;;2.17;;
6999;SDS011;3540;53.242;10.408;2022-12-07T13:05:30;7.90;;;1.80;;
6999;SDS011;3540;53.242;10.408;2022-12-07T13:08:00;10.40;;;2.40;;
6999;SDS011;3540;53.242;10.408;2022-12-07T13:10:33;5.33;;;2.00;;
6999;SDS011;3540;53.242;10.408;2022-12-07T13:13:03;7.60;;;2.17;;
6999;SDS011;3540;53.242;10.408;2022-12-07T13:15:45;5.97;;;1.83;;
6999;SDS011;3540;53.242;10.408;2022-12-07T13:18:22;5.23;;;1.70;;
6999;SDS011;3540;53.242;10.408;2022-12-07T13:34:03;6.60;;;1.87;;
6999;SDS011;3540;53.242;10.408;2022-12-07T13:36:49;6.77;;;1.90;;
6999;SDS011;3540;53.242;10.408;2022-12-07T13:39:17;7.60;;;1.77;;
6999;SDS011;3540;53.242;10.408;2022-12-07T13:41:48;7.47;;;1.63;;
6999;SDS011;3540;53.242;10.408;2022-12-07T13:44:16;8.13;;;2.40;;
6999;SDS011;3540;53.242;10.408;2022-12-07T13:49:25;8.47;;;1.90;;
6999;SDS011;3540;53.242;10.408;2022-12-07T13:51:53;10.87;;;2.03;;
6999;SDS011;3540;53.242;10.408;2022-12-07T13:54:19;7.20;;;1.90;;
6999;SDS011;3540;53.242;10.408;2022-12-07T13:56:50;10.03;;;2.43;;
6999;SDS011;3540;53.242;10.408;2022-12-07T13:59:18;9.93;;;2.00;;
6999;SDS011;3540;53.242;10.408;2022-12-07T14:01:46;5.53;;;1.83;;
6999;SDS011;3540;53.242;10.408;2022-12-07T14:05:05;9.20;;;2.10;;
6999;SDS011;3540;53.242;10.408;2022-12-07T14:07:18;9.30;;;2.30;;
6999;SDS011;3540;53.242;10.408;2022-12-07T14:09:58;8.13;;;1.70;;
6999;SDS011;3540;53.242;10.408;2022-12-07T14:12:31;8.13;;;1.63;;
6999;SDS011;3540;53.242;10.408;2022-12-07T14:15:00;7.03;;;1.97;;
6999;SDS011;3540;53.242;10.408;2022-12-07T14:17:27;4.80;;;2.07;;
6999;SDS011;3540;53.242;10.408;2022-12-07T14:20:00;8.43;;;2.13;;
6999;SDS011;3540;53.242;10.408;2022-12-07T14:27:59;10.17;;;3.20;;
6999;SDS011;3540;53.242;10.408;2022-12-07T14:30:29;6.87;;;2.50;;
6999;SDS011;3540;53.242;10.408;2022-12-07T14:32:58;8.70;;;2.67;;
6999;SDS011;3540;53.242;10.408;2022-12-07T14:35:25;10.17;;;3.00;;
6999;SDS011;3540;53.242;10.408;2022-12-07T14:37:51;9.07;;;2.40;;
6999;SDS011;3540;53.242;10.408;2022-12-07T14:40:21;6.27;;;2.30;;
6999;SDS011;3540;53.242;10.408;2022-12-07T14:43:05;7.10;;;2.10;;
6999;SDS011;3540;53.242;10.408;2022-12-07T14:45:35;5.73;;;1.80;;
6999;SDS011;3540;53.242;10.408;2022-12-07T14:48:01;8.53;;;2.13;;
6999;SDS011;3540;53.242;10.408;2022-12-07T14:50:26;7.50;;;2.37;;
6999;SDS011;3540;53.242;10.408;2022-12-07T14:52:56;8.90;;;1.83;;
6999;SDS011;3540;53.242;10.408;2022-12-07T14:55:29;3.80;;;1.30;;
6999;SDS011;3540;53.242;10.408;2022-12-07T14:57:56;8.13;;;2.00;;
6999;SDS011;3540;53.242;10.408;2022-12-07T15:00:22;7.53;;;1.70;;
6999;SDS011;3540;53.242;10.408;2022-12-07T15:02:49;6.03;;;1.60;;
6999;SDS011;3540;53.242;10.408;2022-12-07T15:05:16;6.50;;;1.70;;
6999;SDS011;3540;53.242;10.408;2022-12-07T15:07:42;9.37;;;2.00;;
6999;SDS011;3540;53.242;10.408;2022-12-07T15:12:45;6.07;;;1.80;;
6999;SDS011;3540;53.242;10.408;2022-12-07T15:15:11;6.60;;;1.93;;
6999;SDS011;3540;53.242;10.408;2022-12-07T15:17:37;4.27;;;2.03;;
6999;SDS011;3540;53.242;10.408;2022-12-07T15:20:03;7.70;;;2.37;;
6999;SDS011;3540;53.242;10.408;2022-12-07T15:22:29;10.03;;;2.83;;
6999;SDS011;3540;53.242;10.408;2022-12-07T15:24:56;7.60;;;1.97;;
6999;SDS011;3540;53.242;10.408;2022-12-07T15:27:22;6.37;;;2.30;;
6999;SDS011;3540;53.242;10.408;2022-12-07T15:29:47;10.53;;;2.20;;
6999;SDS011;3540;53.242;10.408;2022-12-07T15:32:13;5.47;;;2.00;;
6999;SDS011;3540;53.242;10.408;2022-12-07T15:34:39;9.73;;;2.43;;
6999;SDS011;3540;53.242;10.408;2022-12-07T15:37:04;9.03;;;2.10;;
6999;SDS011;3540;53.242;10.408;2022-12-07T15:39:31;6.20;;;2.10;;
6999;SDS011;3540;53.242;10.408;2022-12-07T15:41:57;6.00;;;1.87;;
6999;SDS011;3540;53.242;10.408;2022-12-07T15:44:23;8.70;;;2.30;;
6999;SDS011;3540;53.242;10.408;2022-12-07T15:47:07;9.77;;;1.90;;
6999;SDS011;3540;53.242;10.408;2022-12-07T15:49:33;8.63;;;2.23;;
6999;SDS011;3540;53.242;10.408;2022-12-07T15:51:58;7.00;;;2.37;;
6999;SDS011;3540;53.242;10.408;2022-12-07T15:54:25;5.87;;;2.03;;
6999;SDS011;3540;53.242;10.408;2022-12-07T15:56:53;7.47;;;2.33;;
6999;SDS011;3540;53.242;10.408;2022-12-07T15:59:19;8.93;;;2.30;;
6999;SDS011;3540;53.242;10.408;2022-12-07T16:01:45;5.23;;;2.17;;
6999;SDS011;3540;53.242;10.408;2022-12-07T16:04:11;8.37;;;2.40;;
6999;SDS011;3540;53.242;10.408;2022-12-07T16:06:37;5.80;;;2.70;;
6999;SDS011;3540;53.242;10.408;2022-12-07T16:09:03;10.60;;;3.03;;
6999;SDS011;3540;53.242;10.408;2022-12-07T16:11:28;8.03;;;2.50;;
6999;SDS011;3540;53.242;10.408;2022-12-07T16:13:54;5.20;;;2.00;;
6999;SDS011;3540;53.242;10.408;2022-12-07T16:16:20;7.47;;;2.60;;
6999;SDS011;3540;53.242;10.408;2022-12-07T16:18:47;6.93;;;3.10;;
6999;SDS011;3540;53.242;10.408;2022-12-07T16:21:14;9.03;;;2.70;;
6999;SDS011;3540;53.242;10.408;2022-12-07T16:23:40;9.03;;;2.50;;
6999;SDS011;3540;53.242;10.408;2022-12-07T16:26:16;10.03;;;2.80;;
6999;SDS011;3540;53.242;10.408;2022-12-07T16:28:44;9.00;;;2.90;;
6999;SDS011;3540;53.242;10.408;2022-12-07T16:31:11;6.33;;;2.80;;
6999;SDS011;3540;53.242;10.408;2022-12-07T16:33:38;11.43;;;2.90;;
6999;SDS011;3540;53.242;10.408;2022-12-07T16:36:06;8.30;;;2.90;;
6999;SDS011;3540;53.242;10.408;2022-12-07T16:38:32;5.07;;;2.57;;
6999;SDS011;3540;53.242;10.408;2022-12-07T16:40:59;8.13;;;2.80;;
6999;SDS011;3540;53.242;10.408;2022-12-07T16:43:25;7.70;;;3.47;;
6999;SDS011;3540;53.242;10.408;2022-12-07T16:45:50;6.87;;;3.00;;
6999;SDS011;3540;53.242;10.408;2022-12-07T16:48:16;8.30;;;3.20;;
6999;SDS011;3540;53.242;10.408;2022-12-07T16:50:43;5.13;;;3.07;;
6999;SDS011;3540;53.242;10.408;2022-12-07T16:53:10;10.70;;;4.10;;
6999;SDS011;3540;53.242;10.408;2022-12-07T16:55:40;16.00;;;4.07;;
6999;SDS011;3540;53.242;10.408;2022-12-07T16:58:07;7.83;;;4.23;;
6999;SDS011;3540;53.242;10.408;2022-12-07T17:00:33;9.77;;;4.70;;
6999;SDS011;3540;53.242;10.408;2022-12-07T17:02:59;11.97;;;4.63;;
6999;SDS011;3540;53.242;10.408;2022-12-07T17:05:25;10.07;;;4.80;;
6999;SDS011;3540;53.242;10.408;2022-12-07T17:07:53;6.50;;;4.67;;
6999;SDS011;3540;53.242;10.408;2022-12-07T17:10:20;9.73;;;4.67;;
6999;SDS011;3540;53.242;10.408;2022-12-07T17:12:46;10.73;;;5.47;;
6999;SDS011;3540;53.242;10.408;2022-12-07T17:15:12;10.20;;;4.80;;
6999;SDS011;3540;53.242;10.408;2022-12-07T17:17:52;10.30;;;4.73;;
6999;SDS011;3540;53.242;10.408;2022-12-07T17:20:22;9.60;;;5.40;;
6999;SDS011;3540;53.242;10.408;2022-12-07T17:22:50;10.00;;;4.70;;
6999;SDS011;3540;53.242;10.408;2022-12-07T17:25:16;9.50;;;4.73;;
6999;SDS011;3540;53.242;10.408;2022-12-07T17:27:43;11.27;;;4.77;;
6999;SDS011;3540;53.242;10.408;2022-12-07T17:30:09;12.90;;;5.63;;
6999;SDS011;3540;53.242;10.408;2022-12-07T17:32:35;9.00;;;5.63;;
6999;SDS011;3540;53.242;10.408;2022-12-07T17:35:01;14.67;;;6.30;;